Time;durP1;ratioP1;P1;durP2;ratioP2;P2;SDS_P1;SDS_P2;PMS_P1;PMS_P2;Temp;Humidity;BMP_temperature;BMP_pressure;BME280_temperature;BME280_humidity;BME280_pressure;Samples;Min_cycle;Max_cycle;Signal;HPM_P1;HPM_P2
2022/04/24 00:02:37;;;;;;;2.50;2.00;;;20.80;38.50;19.90;100081.00;;;;5033366;28;20038;-72
2022/04/24 00:05:23;;;;;;;1.88;1.77;;;20.80;38.50;19.90;100073.00;;;;5033316;28;20123;-72
2022/04/24 00:08:09;;;;;;;2.42;2.22;;;20.80;38.60;19.90;100081.00;;;;5033203;28;20041;-72
2022/04/24 00:10:55;;;;;;;2.60;2.08;;;20.80;38.50;19.90;100067.00;;;;5037481;28;20041;-72
2022/04/24 00:13:42;;;;;;;2.25;2.05;;;20.80;38.60;19.90;100079.00;;;;5043752;28;20046;-72
2022/04/24 00:16:28;;;;;;;2.30;2.10;;;20.80;38.60;19.90;100083.00;;;;5035352;28;20123;-72
2022/04/24 00:19:15;;;;;;;3.22;2.35;;;20.80;38.60;19.90;100074.00;;;;5039986;28;20043;-72
2022/04/24 00:22:01;;;;;;;2.03;1.70;;;20.80;38.60;19.90;100076.00;;;;5027536;28;20106;-72
2022/04/24 00:24:47;;;;;;;2.30;2.03;;;20.80;38.60;19.90;100073.00;;;;5038703;28;20565;-72
2022/04/24 00:27:34;;;;;;;2.42;2.13;;;20.80;38.60;19.90;100064.00;;;;5045210;28;20086;-72
2022/04/24 00:30:20;;;;;;;5.10;2.07;;;20.40;38.40;19.90;100067.00;;;;5037022;28;20037;-72
2022/04/24 00:33:06;;;;;;;2.28;2.08;;;20.80;38.60;19.90;100061.00;;;;5032760;28;20287;-72
2022/04/24 00:35:52;;;;;;;2.33;2.03;;;20.80;38.60;19.90;100059.00;;;;5036264;28;20052;-72
2022/04/24 00:38:38;;;;;;;2.10;1.90;;;20.80;38.70;19.90;100060.00;;;;5041605;28;20140;-72
2022/04/24 00:41:25;;;;;;;2.30;2.08;;;20.70;38.60;19.90;100057.00;;;;5040194;28;20536;-72
2022/04/24 00:44:11;;;;;;;2.25;2.03;;;20.70;38.60;19.90;100053.00;;;;5037256;28;20040;-72
2022/04/24 00:47:13;;;;;;;2.22;2.03;;;20.70;38.60;19.90;100050.00;;;;5043953;28;20057;-72
2022/04/24 00:49:59;;;;;;;2.92;1.92;;;20.70;38.70;19.90;100058.00;;;;5021434;28;20053;-72
2022/04/24 00:52:46;;;;;;;2.42;2.22;;;20.70;38.70;19.90;100050.00;;;;5038612;28;20038;-72
2022/04/24 00:55:33;;;;;;;2.13;1.92;;;20.70;38.70;19.90;100051.00;;;;5026838;28;20498;-72
2022/04/24 00:58:19;;;;;;;2.30;2.10;;;20.70;38.70;19.90;100045.00;;;;5009847;28;20051;-72
2022/04/24 01:01:05;;;;;;;2.90;1.90;;;20.80;38.80;19.90;100044.00;;;;5012442;28;20045;-72
2022/04/24 01:03:51;;;;;;;2.00;1.90;;;20.60;38.70;19.80;100038.00;;;;5038560;28;20048;-72
2022/04/24 01:06:39;;;;;;;2.67;2.10;;;20.60;38.70;19.80;100046.00;;;;5020502;28;20115;-72
2022/04/24 01:09:26;;;;;;;2.53;2.33;;;20.70;38.80;19.80;100045.00;;;;5027369;28;20049;-72
2022/04/24 01:12:12;;;;;;;2.55;2.35;;;20.70;38.80;19.80;100041.00;;;;5035037;28;20045;-72
2022/04/24 01:14:58;;;;;;;2.28;2.08;;;20.70;38.80;19.80;100043.00;;;;5038430;28;20052;-72
2022/04/24 01:17:44;;;;;;;2.05;1.88;;;20.70;38.90;19.80;100036.00;;;;5039275;28;20049;-72
2022/04/24 01:20:30;;;;;;;3.40;1.98;;;20.70;38.90;19.80;100048.00;;;;5035570;28;20104;-72
2022/04/24 01:23:16;;;;;;;2.05;1.85;;;20.60;38.90;19.80;100040.00;;;;5038013;28;20642;-72
2022/04/24 01:26:02;;;;;;;2.30;2.10;;;20.70;38.80;19.80;100040.00;;;;5042649;28;20132;-72
2022/04/24 01:28:48;;;;;;;2.65;2.35;;;20.70;38.90;19.80;100035.00;;;;5037539;28;20048;-72
2022/04/24 01:31:34;;;;;;;2.42;2.22;;;20.60;38.90;19.80;100040.00;;;;5038543;28;20114;-72
2022/04/24 01:34:21;;;;;;;2.72;2.00;;;20.70;38.90;19.80;100038.00;;;;5040099;28;20044;-72
2022/04/24 01:37:08;;;;;;;2.58;2.25;;;20.60;38.90;19.80;100037.00;;;;5038240;28;20099;-72
2022/04/24 01:39:54;;;;;;;4.03;2.15;;;20.60;38.90;19.80;100037.00;;;;5038340;28;20045;-72
2022/04/24 01:42:40;;;;;;;2.35;1.92;;;20.60;38.90;19.80;100033.00;;;;5011495;28;20044;-72
2022/04/24 01:45:26;;;;;;;2.58;2.08;;;20.60;39.00;19.80;100038.00;;;;5033273;28;20056;-72
2022/04/24 01:48:12;;;;;;;2.78;1.80;;;20.60;39.00;19.80;100040.00;;;;5038379;28;20045;-72
2022/04/24 01:51:00;;;;;;;2.50;2.30;;;20.60;39.00;19.80;100041.00;;;;5023682;28;20463;-72
2022/04/24 01:53:46;;;;;;;2.15;1.95;;;20.60;39.00;19.80;100041.00;;;;5038348;28;20037;-72
2022/04/24 01:56:32;;;;;;;3.55;2.13;;;20.50;38.90;19.70;100045.00;;;;5037601;28;20076;-72
2022/04/24 01:59:18;;;;;;;3.28;2.00;;;20.60;39.00;19.70;100046.00;;;;5039275;28;20068;-72
2022/04/24 02:02:04;;;;;;;2.55;2.25;;;20.60;39.00;19.80;100045.00;;;;5034857;28;20049;-72
2022/04/24 02:04:50;;;;;;;3.15;1.95;;;20.60;38.90;19.70;100047.00;;;;5036643;28;20047;-72
2022/04/24 02:07:36;;;;;;;2.28;1.92;;;20.50;38.90;19.70;100045.00;;;;5043581;28;20048;-72
2022/04/24 02:10:22;;;;;;;2.10;1.90;;;20.50;38.90;19.70;100038.00;;;;5032504;28;20036;-72
2022/04/24 02:13:09;;;;;;;2.88;2.50;;;20.50;38.90;19.70;100038.00;;;;5037490;28;20090;-72
2022/04/24 02:15:55;;;;;;;1.90;1.52;;;20.60;39.00;19.70;100035.00;;;;5018150;28;20049;-72
2022/04/24 02:18:41;;;;;;;2.33;2.00;;;20.60;39.00;19.70;100042.00;;;;5043423;28;20037;-72
2022/04/24 02:21:28;;;;;;;2.42;1.90;;;20.60;39.00;19.70;100043.00;;;;5037546;28;20091;-72
2022/04/24 02:24:14;;;;;;;2.35;2.05;;;20.50;39.00;19.70;100043.00;;;;5039286;28;20052;-72
2022/04/24 02:27:01;;;;;;;3.92;2.00;;;20.50;39.00;19.70;100038.00;;;;5034984;28;20061;-72
2022/04/24 02:29:47;;;;;;;1.98;1.80;;;20.50;39.00;19.70;100040.00;;;;5031424;28;20041;-72
2022/04/24 02:32:33;;;;;;;2.42;1.90;;;20.60;39.10;19.70;100036.00;;;;5035344;28;20038;-72
2022/04/24 02:35:19;;;;;;;2.45;1.92;;;20.50;39.10;19.70;100034.00;;;;5020088;28;20045;-72
2022/04/24 02:38:05;;;;;;;2.25;1.83;;;20.50;39.10;19.70;100033.00;;;;5043574;28;20438;-72
2022/04/24 02:40:51;;;;;;;1.85;1.75;;;20.50;39.10;19.70;100027.00;;;;5005219;28;20044;-72
2022/04/24 02:43:37;;;;;;;2.05;1.80;;;20.50;39.10;19.70;100019.00;;;;5006596;28;20103;-72
2022/04/24 02:46:23;;;;;;;1.90;1.80;;;20.50;39.10;19.70;100019.00;;;;5039402;28;20053;-72
2022/04/24 02:49:09;;;;;;;2.72;2.10;;;20.50;39.20;19.70;100025.00;;;;5033350;28;20064;-72
2022/04/24 02:51:55;;;;;;;2.60;2.10;;;20.40;39.10;19.60;100019.00;;;;5034547;28;20045;-72
2022/04/24 02:54:41;;;;;;;2.40;1.88;;;20.40;39.10;19.70;100020.00;;;;5028205;28;20079;-72
2022/04/24 02:57:28;;;;;;;2.00;1.80;;;20.40;39.10;19.60;100025.00;;;;5041965;28;20086;-72
2022/04/24 03:00:19;;;;;;;2.75;1.95;;;20.40;39.20;19.60;100020.00;;;;5037554;28;20073;-72
2022/04/24 03:03:09;;;;;;;4.07;2.08;;;20.50;39.30;19.60;100015.00;;;;5023873;28;20106;-72
2022/04/24 03:05:55;;;;;;;2.83;1.65;;;20.50;39.30;19.60;100030.00;;;;5022093;28;20044;-72
2022/04/24 03:08:41;;;;;;;1.83;1.70;;;20.40;39.20;19.60;100026.00;;;;5035719;28;20394;-72
2022/04/24 03:11:27;;;;;;;2.80;1.67;;;20.50;40.00;19.60;100023.00;;;;5036402;28;20052;-72
2022/04/24 03:14:13;;;;;;;2.28;1.85;;;20.40;39.20;19.60;100028.00;;;;5038703;28;20060;-72
2022/04/24 03:16:59;;;;;;;2.28;1.70;;;20.40;39.30;19.60;100025.00;;;;5037415;28;20450;-72
2022/04/24 03:19:45;;;;;;;1.65;1.55;;;20.40;39.20;19.60;100031.00;;;;5023224;28;20045;-72
2022/04/24 03:22:33;;;;;;;2.05;1.85;;;20.40;39.30;19.60;100019.00;;;;5037750;28;20056;-72
2022/04/24 03:25:19;;;;;;;2.13;1.80;;;20.40;39.20;19.60;100019.00;;;;5024632;28;20045;-72
2022/04/24 03:28:08;;;;;;;2.78;1.98;;;20.10;39.20;19.60;100018.00;;;;5038185;28;20076;-72
2022/04/24 03:30:54;;;;;;;1.83;1.73;;;20.40;39.20;19.60;100028.00;;;;5036683;28;20136;-72
2022/04/24 03:33:40;;;;;;;4.10;1.90;;;20.40;39.20;19.60;100027.00;;;;5043630;28;20033;-72
2022/04/24 03:36:27;;;;;;;1.52;1.40;;;20.40;39.20;19.60;100025.00;;;;5040803;28;20055;-72
2022/04/24 03:39:13;;;;;;;2.22;1.88;;;20.30;39.10;19.60;100029.00;;;;5027229;28;20041;-72
2022/04/24 03:41:59;;;;;;;1.70;1.55;;;20.40;39.20;19.50;100032.00;;;;5044887;28;20045;-72
2022/04/24 03:44:45;;;;;;;3.03;1.90;;;20.40;39.20;19.60;100042.00;;;;5008842;28;20055;-72
2022/04/24 03:47:31;;;;;;;2.78;1.70;;;20.40;39.10;19.50;100039.00;;;;5046380;28;20049;-72
2022/04/24 03:50:18;;;;;;;1.75;1.40;;;20.40;39.10;19.50;100044.00;;;;5038553;28;20037;-72
2022/04/24 03:53:07;;;;;;;2.00;1.70;;;20.30;39.10;19.50;100042.00;;;;5041025;28;20390;-72
2022/04/24 03:55:53;;;;;;;1.67;1.58;;;20.30;39.20;19.50;100040.00;;;;5051240;28;20132;-72
2022/04/24 03:58:39;;;;;;;2.67;1.67;;;20.30;39.10;19.50;100043.00;;;;5035569;28;20041;-72
2022/04/24 04:01:25;;;;;;;2.70;1.58;;;20.30;39.10;19.50;100033.00;;;;5046784;28;20091;-72
2022/04/24 04:04:12;;;;;;;2.08;1.60;;;20.40;39.20;19.50;100043.00;;;;5040490;28;20037;-72
2022/04/24 04:06:58;;;;;;;1.70;1.60;;;20.30;39.10;19.50;100037.00;;;;5038629;28;20609;-72
2022/04/24 04:09:44;;;;;;;3.50;1.83;;;20.30;39.10;19.50;100038.00;;;;5041128;28;20036;-72
2022/04/24 04:12:30;;;;;;;1.85;1.63;;;20.30;39.10;19.50;100036.00;;;;5037829;28;20107;-71
2022/04/24 04:15:17;;;;;;;2.10;1.50;;;20.30;39.10;19.50;100042.00;;;;5041098;28;20056;-71
2022/04/24 04:18:03;;;;;;;2.33;1.67;;;20.30;39.10;19.50;100044.00;;;;5020504;28;20505;-72
2022/04/24 04:20:49;;;;;;;1.85;1.52;;;20.30;39.10;19.50;100044.00;;;;5039635;28;20103;-72
2022/04/24 04:23:35;;;;;;;2.63;1.85;;;20.30;39.10;19.50;100044.00;;;;5047614;28;20057;-72
2022/04/24 04:26:21;;;;;;;2.88;1.60;;;20.30;39.10;19.50;100046.00;;;;5039839;28;20041;-72
2022/04/24 04:29:07;;;;;;;3.55;1.65;;;20.30;39.20;19.50;100041.00;;;;5049139;28;20051;-72
2022/04/24 04:31:53;;;;;;;2.55;1.65;;;20.30;39.10;19.50;100053.00;;;;5016778;28;20159;-72
2022/04/24 04:34:39;;;;;;;1.63;1.52;;;20.30;39.10;19.40;100050.00;;;;5036799;28;20426;-72
2022/04/24 04:37:26;;;;;;;2.05;1.50;;;20.30;39.10;19.40;100041.00;;;;5043000;28;20052;-72
2022/04/24 04:40:12;;;;;;;2.03;1.83;;;20.30;39.10;19.40;100047.00;;;;5036368;28;20053;-72
2022/04/24 04:42:58;;;;;;;2.72;1.67;;;20.30;39.10;19.40;100050.00;;;;5043811;28;20049;-72
2022/04/24 04:45:44;;;;;;;2.60;1.65;;;20.20;39.00;19.40;100063.00;;;;5037566;28;20053;-72
2022/04/24 04:48:30;;;;;;;2.40;1.50;;;20.30;39.10;19.40;100054.00;;;;5041899;28;20045;-72
2022/04/24 04:51:16;;;;;;;3.20;1.75;;;20.20;39.00;19.40;100065.00;;;;5039388;28;20499;-72
2022/04/24 04:54:02;;;;;;;1.58;1.48;;;20.20;39.00;19.40;100059.00;;;;5043546;28;20033;-72
2022/04/24 04:56:48;;;;;;;1.25;1.15;;;20.20;38.90;19.40;100050.00;;;;5029789;28;20064;-72
2022/04/24 04:59:34;;;;;;;1.85;1.60;;;20.20;38.90;19.40;100075.00;;;;5037285;28;20119;-72
2022/04/24 05:02:20;;;;;;;2.50;1.35;;;20.20;39.00;19.40;100068.00;;;;5042698;28;20040;-72
2022/04/24 05:05:07;;;;;;;1.42;1.30;;;20.20;38.90;19.40;100066.00;;;;5041202;28;20041;-72
2022/04/24 05:07:53;;;;;;;2.40;1.70;;;20.20;39.00;19.40;100068.00;;;;5027395;28;20493;-72
2022/04/24 05:10:39;;;;;;;1.73;1.38;;;20.10;38.90;19.40;100079.00;;;;5040648;28;20040;-72
2022/04/24 05:13:25;;;;;;;1.73;1.48;;;20.20;38.90;19.40;100084.00;;;;5047156;28;20098;-72
2022/04/24 05:16:12;;;;;;;2.25;1.55;;;20.20;38.90;19.40;100089.00;;;;5038162;28;20041;-72
2022/04/24 05:18:58;;;;;;;1.63;1.48;;;20.20;38.90;19.40;100086.00;;;;5034879;28;20056;-72
2022/04/24 05:21:44;;;;;;;1.92;1.35;;;20.20;38.90;19.40;100088.00;;;;5042713;28;20036;-71
2022/04/24 05:24:30;;;;;;;1.38;1.27;;;20.20;38.90;19.30;100084.00;;;;5043620;28;20827;-72
2022/04/24 05:27:17;;;;;;;2.00;1.60;;;20.20;38.90;19.40;100085.00;;;;5040654;28;20052;-72
2022/04/24 05:30:07;;;;;;;3.05;1.50;;;20.10;38.80;19.30;100087.00;;;;5027486;28;20045;-72
2022/04/24 05:32:54;;;;;;;2.28;1.80;;;20.10;38.80;19.40;100081.00;;;;5038713;28;20052;-72
2022/04/24 05:35:40;;;;;;;1.48;1.30;;;20.10;38.80;19.40;100088.00;;;;5021547;28;20049;-72
2022/04/24 05:38:26;;;;;;;2.53;1.63;;;20.10;38.80;19.30;100085.00;;;;5042370;28;20049;-72
2022/04/24 05:41:12;;;;;;;1.65;1.55;;;20.10;38.90;19.30;100092.00;;;;5033815;28;20398;-72
2022/04/24 05:43:58;;;;;;;2.92;1.40;;;20.20;38.90;19.30;100087.00;;;;5043764;28;20099;-72
2022/04/24 05:46:44;;;;;;;1.40;1.30;;;20.10;38.90;19.30;100106.00;;;;5044105;28;20525;-72
2022/04/24 05:49:30;;;;;;;1.75;1.38;;;20.10;38.90;19.30;100098.00;;;;5042417;28;20045;-72
2022/04/24 05:52:16;;;;;;;2.80;1.50;;;20.10;38.90;19.30;100102.00;;;;5038701;28;20471;-72
2022/04/24 05:55:02;;;;;;;1.48;1.23;;;20.20;38.90;19.30;100106.00;;;;5034793;28;20047;-72
2022/04/24 05:57:49;;;;;;;1.70;1.38;;;20.10;38.90;19.30;100108.00;;;;5046579;28;20461;-72
2022/04/24 06:00:38;;;;;;;1.77;1.48;;;20.10;38.90;19.30;100105.00;;;;5025829;28;20049;-72
2022/04/24 06:03:24;;;;;;;2.63;1.35;;;20.10;38.90;19.30;100109.00;;;;5026972;28;20068;-72
2022/04/24 06:06:10;;;;;;;3.17;1.42;;;20.10;38.90;19.30;100101.00;;;;5042191;28;20076;-72
2022/04/24 06:08:57;;;;;;;1.80;1.50;;;20.10;39.00;19.30;100101.00;;;;5012793;28;20041;-72
2022/04/24 06:11:43;;;;;;;1.63;1.20;;;20.10;39.00;19.30;100108.00;;;;5023059;28;20041;-72
2022/04/24 06:14:29;;;;;;;2.20;1.38;;;20.10;38.90;19.30;100110.00;;;;5036359;28;20040;-72
2022/04/24 06:17:15;;;;;;;1.90;1.80;;;20.10;39.00;19.30;100107.00;;;;5043859;28;20049;-72
2022/04/24 06:20:02;;;;;;;1.55;1.42;;;20.10;38.90;19.30;100112.00;;;;5035362;28;20045;-72
2022/04/24 06:22:55;;;;;;;1.37;1.27;;;20.10;39.00;19.30;100109.00;;;;5039801;28;20650;-72
2022/04/24 06:25:41;;;;;;;1.75;1.23;;;20.10;38.90;19.30;100112.00;;;;5025432;28;20124;-72
2022/04/24 06:28:28;;;;;;;2.72;1.38;;;20.10;39.00;19.30;100112.00;;;;5039968;28;20037;-72
2022/04/24 06:31:14;;;;;;;2.47;1.42;;;20.10;39.00;19.30;100113.00;;;;5035945;28;20045;-72
2022/04/24 06:34:00;;;;;;;2.13;1.60;;;20.10;38.90;19.30;100112.00;;;;5035892;28;20041;-72
2022/04/24 06:36:46;;;;;;;2.00;1.52;;;20.10;39.00;19.30;100112.00;;;;5037042;28;20126;-72
2022/04/24 06:39:32;;;;;;;1.83;1.42;;;20.10;39.00;19.30;100113.00;;;;5031883;28;20041;-72
2022/04/24 06:42:18;;;;;;;1.25;1.15;;;20.10;39.00;19.30;100108.00;;;;5039989;28;20036;-73
2022/04/24 06:45:05;;;;;;;3.53;1.13;;;20.10;39.00;19.30;100107.00;;;;5036200;28;20052;-72
2022/04/24 06:47:59;;;;;;;2.03;1.30;;;20.00;38.90;19.30;100111.00;;;;5042093;28;20115;-72
2022/04/24 06:50:46;;;;;;;1.13;1.00;;;20.00;38.90;19.30;100107.00;;;;5018051;28;20116;-72
2022/04/24 06:53:34;;;;;;;2.47;1.38;;;20.00;39.00;19.30;100113.00;;;;5025665;28;20041;-72
2022/04/24 06:56:20;;;;;;;2.00;1.33;;;20.10;39.00;19.20;100113.00;;;;5035046;28;20474;-72
2022/04/24 06:59:06;;;;;;;3.03;1.48;;;20.00;39.00;19.30;100108.00;;;;5023130;28;20045;-72
2022/04/24 07:01:52;;;;;;;1.70;1.38;;;20.10;39.10;19.30;100102.00;;;;5031570;28;20052;-72
2022/04/24 07:04:38;;;;;;;1.30;1.20;;;20.00;38.90;19.30;100102.00;;;;5036917;28;20041;-72
2022/04/24 07:07:24;;;;;;;2.08;1.58;;;20.00;39.00;19.30;100112.00;;;;5028895;28;20118;-72
2022/04/24 07:10:10;;;;;;;1.20;1.10;;;20.10;39.10;19.30;100104.00;;;;5039131;28;20037;-72
2022/04/24 07:12:56;;;;;;;3.70;1.60;;;20.10;39.10;19.30;100112.00;;;;5038948;28;20060;-72
2022/04/24 07:15:42;;;;;;;2.17;1.30;;;20.00;39.10;19.30;100113.00;;;;5040387;28;20041;-72
2022/04/24 07:18:30;;;;;;;3.22;1.15;;;20.00;39.10;19.30;100110.00;;;;5034919;28;20565;-72
2022/04/24 07:21:16;;;;;;;1.50;1.27;;;20.00;39.00;19.30;100118.00;;;;5038989;28;20498;-72
2022/04/24 07:24:03;;;;;;;3.08;1.40;;;20.10;39.10;19.30;100102.00;;;;5042091;28;20064;-72
2022/04/24 07:26:49;;;;;;;1.63;1.27;;;20.00;39.00;19.30;100114.00;;;;5042564;28;20569;-72
2022/04/24 07:29:35;;;;;;;2.38;1.30;;;20.10;39.10;19.30;100122.00;;;;5036297;28;20371;-72
2022/04/24 07:32:22;;;;;;;1.92;1.30;;;20.10;39.10;19.30;100118.00;;;;5039882;28;20049;-72
2022/04/24 07:35:13;;;;;;;1.33;1.20;;;20.00;39.10;19.30;100119.00;;;;5033868;28;20041;-72
2022/04/24 07:37:59;;;;;;;1.63;1.20;;;20.00;39.10;19.30;100117.00;;;;5036936;28;20391;-72
2022/04/24 07:40:46;;;;;;;2.33;1.27;;;20.00;39.10;19.30;100115.00;;;;5035417;28;20045;-72
2022/04/24 07:43:33;;;;;;;2.10;1.05;;;20.00;39.20;19.30;100124.00;;;;5021074;28;20049;-72
2022/04/24 07:46:19;;;;;;;1.77;1.45;;;20.10;39.20;19.30;100117.00;;;;5010507;28;20124;-72
2022/04/24 07:49:05;;;;;;;1.60;1.50;;;20.10;39.20;19.30;100123.00;;;;5021192;28;20037;-72
2022/04/24 07:51:51;;;;;;;1.52;1.35;;;20.10;39.30;19.20;100125.00;;;;5040858;28;20069;-72
2022/04/24 07:54:37;;;;;;;1.65;1.27;;;20.10;39.30;19.30;100127.00;;;;5033615;28;20076;-72
2022/04/24 07:57:23;;;;;;;1.58;1.23;;;20.10;39.30;19.30;100118.00;;;;5031599;28;20048;-72
2022/04/24 08:00:10;;;;;;;2.50;1.50;;;20.10;39.30;19.30;100117.00;;;;5034138;28;20041;-72
2022/04/24 08:02:57;;;;;;;1.92;1.23;;;20.10;39.30;19.30;100116.00;;;;5035064;28;20711;-72
2022/04/24 08:05:45;;;;;;;1.48;1.15;;;20.00;39.30;19.30;100116.00;;;;5028393;28;20048;-72
2022/04/24 08:08:31;;;;;;;2.45;1.40;;;20.00;39.30;19.30;100115.00;;;;5025763;28;20041;-72
2022/04/24 08:11:17;;;;;;;2.75;1.50;;;20.10;39.40;19.30;100108.00;;;;5039433;28;20448;-72
2022/04/24 08:14:03;;;;;;;2.05;1.48;;;20.10;39.40;19.30;100111.00;;;;5040581;28;20045;-72
2022/04/24 08:16:49;;;;;;;2.20;1.25;;;20.10;39.50;19.30;100118.00;;;;5032632;28;20053;-71
2022/04/24 08:19:35;;;;;;;2.55;1.50;;;20.10;39.40;19.30;100111.00;;;;5036074;28;20049;-72
2022/04/24 08:22:21;;;;;;;2.97;1.40;;;20.10;39.40;19.30;100103.00;;;;5036184;28;20048;-72
2022/04/24 08:25:11;;;;;;;1.65;1.42;;;20.10;39.60;19.30;100120.00;;;;5035921;28;20063;-72
2022/04/24 08:27:57;;;;;;;2.05;1.35;;;20.10;39.50;19.30;100112.00;;;;5044080;28;20061;-72
2022/04/24 08:30:44;;;;;;;2.58;1.50;;;20.10;39.50;19.30;100116.00;;;;5033043;28;20040;-72
2022/04/24 08:33:30;;;;;;;5.82;1.60;;;20.10;39.30;19.30;100115.00;;;;5009466;28;20148;-72
2022/04/24 08:36:17;;;;;;;4.45;1.58;;;20.10;39.30;19.30;100113.00;;;;5036998;28;20045;-73
2022/04/24 08:39:03;;;;;;;3.90;2.10;;;20.10;39.10;19.30;100115.00;;;;5035990;28;20045;-73
2022/04/24 08:41:49;;;;;;;17.23;2.47;;;20.00;39.10;19.30;100116.00;;;;5036107;28;20545;-72
2022/04/24 08:44:36;;;;;;;2.10;1.75;;;20.20;39.10;19.30;100115.00;;;;5012096;28;20574;-72
2022/04/24 08:47:24;;;;;;;4.80;1.80;;;20.10;39.10;19.30;100118.00;;;;5026313;28;20048;-72
2022/04/24 08:50:11;;;;;;;2.70;1.70;;;20.20;39.20;19.30;100110.00;;;;5028817;28;20107;-72
2022/04/24 08:52:57;;;;;;;28.25;3.00;;;20.20;39.40;19.30;100112.00;;;;5012904;28;20048;-72
2022/04/24 08:55:43;;;;;;;62.72;6.25;;;20.20;39.40;19.40;100113.00;;;;5040087;28;20057;-72
2022/04/24 08:58:31;;;;;;;402.85;35.55;;;20.20;39.30;19.30;100115.00;;;;5014935;28;20041;-73
2022/04/24 09:01:17;;;;;;;100.70;9.30;;;20.20;39.40;19.30;100083.00;;;;5045476;28;20370;-76
2022/04/24 09:04:03;;;;;;;146.30;14.05;;;20.30;39.30;19.30;100106.00;;;;5007894;28;20068;-72
2022/04/24 09:06:56;;;;;;;262.15;21.85;;;20.30;39.00;19.30;100115.00;;;;4998782;28;20494;-73
2022/04/24 09:09:44;;;;;;;420.60;33.05;;;20.30;39.10;19.30;100108.00;;;;5032052;28;20041;-72
2022/04/24 09:12:30;;;;;;;339.27;30.30;;;20.20;39.20;19.30;100107.00;;;;5013100;28;20037;-72
2022/04/24 09:15:18;;;;;;;541.90;51.25;;;20.20;39.10;19.30;100108.00;;;;5044837;28;20045;-72
2022/04/24 09:18:04;;;;;;;199.30;20.00;;;20.20;39.30;19.20;100106.00;;;;5034860;28;20069;-72
2022/04/24 09:20:56;;;;;;;51.25;6.40;;;20.10;39.20;19.20;100102.00;;;;5038850;28;20450;-72
2022/04/24 09:23:42;;;;;;;46.10;6.75;;;20.10;39.10;19.10;100095.00;;;;5041051;28;20048;-72
2022/04/24 09:26:29;;;;;;;13.43;4.40;;;20.10;39.20;19.10;100099.00;;;;5024823;28;20041;-72
2022/04/24 09:29:15;;;;;;;29.77;4.40;;;20.00;39.20;19.10;100103.00;;;;5034851;28;20040;-72
2022/04/24 09:32:01;;;;;;;31.77;4.32;;;20.00;39.40;19.10;100098.00;;;;5043544;28;20037;-75
2022/04/24 09:34:47;;;;;;;230.85;17.25;;;20.00;39.50;19.10;100102.00;;;;5041595;28;20053;-71
2022/04/24 09:37:39;;;;;;;61.85;5.78;;;20.00;39.60;19.10;100106.00;;;;5022067;28;20103;-72
2022/04/24 09:40:36;;;;;;;379.88;34.10;;;20.00;39.70;19.10;100102.00;;;;5026705;28;20044;-71
2022/04/24 09:43:22;;;;;;;86.50;9.10;;;20.10;40.00;19.10;100105.00;;;;5026981;28;20088;-72
2022/04/24 09:46:08;;;;;;;48.92;6.07;;;20.00;39.90;19.10;100102.00;;;;5038551;28;20379;-71
2022/04/24 09:48:57;;;;;;;33.40;4.40;;;20.00;39.90;19.10;100109.00;;;;5029219;28;20044;-71
2022/04/24 09:51:43;;;;;;;25.13;4.53;;;20.00;39.90;19.10;100103.00;;;;5038016;28;20037;-71
2022/04/24 09:54:29;;;;;;;13.60;3.28;;;20.00;40.00;19.10;100102.00;;;;5026842;28;20041;-72
2022/04/24 09:57:16;;;;;;;13.90;3.40;;;20.10;40.00;19.10;100112.00;;;;5012481;28;20052;-72
2022/04/24 10:00:02;;;;;;;8.18;3.00;;;20.10;39.80;19.10;100111.00;;;;5019704;28;20110;-73
2022/04/24 10:02:52;;;;;;;69.95;7.60;;;20.10;40.00;19.10;100113.00;;;;5031686;28;20046;-73
2022/04/24 10:05:39;;;;;;;68.15;8.23;;;20.10;39.90;19.20;100099.00;;;;5032165;28;20097;-76
2022/04/24 10:08:25;;;;;;;17.20;3.03;;;20.10;39.90;19.20;100106.00;;;;4995384;28;20049;-79
2022/04/24 10:11:11;;;;;;;14.93;3.00;;;20.10;39.80;19.20;100115.00;;;;5039871;28;20047;-71
2022/04/24 10:14:06;;;;;;;8.65;2.80;;;20.20;39.90;19.20;100120.00;;;;5008095;28;20033;-71
2022/04/24 10:17:17;;;;;;;8.57;3.80;;;20.10;39.90;19.20;100119.00;;;;5026433;28;20049;-70
2022/04/24 10:21:02;;;;;;;49.53;5.90;;;20.20;39.90;19.20;100122.00;;;;5024768;28;20048;-72
2022/04/24 10:23:48;;;;;;;12.75;4.10;;;20.30;39.80;19.20;100117.00;;;;5010342;28;20098;-71
2022/04/24 10:26:35;;;;;;;82.72;8.73;;;20.30;39.80;19.20;100111.00;;;;5019788;28;20049;-71
2022/04/24 10:29:21;;;;;;;49.35;6.55;;;20.30;39.80;19.30;100119.00;;;;5028502;28;20041;-71
2022/04/24 10:32:08;;;;;;;48.75;5.30;;;20.30;39.80;19.30;100116.00;;;;5023525;28;20455;-71
2022/04/24 10:34:54;;;;;;;34.20;5.53;;;20.30;39.80;19.30;100116.00;;;;5026057;28;20085;-70
2022/04/24 10:37:40;;;;;;;20.90;3.60;;;20.30;39.90;19.30;100112.00;;;;5039977;28;20463;-71
2022/04/24 10:40:26;;;;;;;20.92;3.58;;;20.30;39.80;19.30;100109.00;;;;5038859;28;20114;-72
2022/04/24 10:43:16;;;;;;;6.75;2.65;;;20.30;39.80;19.40;100103.00;;;;5005619;28;20394;-72
2022/04/24 10:46:03;;;;;;;9.63;2.60;;;20.30;39.70;19.40;100107.00;;;;4998704;28;20076;-72
2022/04/24 10:48:49;;;;;;;5.07;2.20;;;20.40;39.90;19.40;100113.00;;;;5021482;28;20038;-71
2022/04/24 10:51:36;;;;;;;8.60;2.50;;;20.40;39.70;19.40;100098.00;;;;5020475;28;20298;-72
2022/04/24 10:54:31;;;;;;;3.92;1.88;;;20.50;39.80;19.40;100097.00;;;;5038903;28;20360;-71
2022/04/24 10:57:20;;;;;;;5.47;2.33;;;20.40;39.70;19.50;100089.00;;;;5024088;28;20103;-72
2022/04/24 11:00:28;;;;;;;5.45;2.10;;;20.40;39.70;19.50;100102.00;;;;5034734;28;20047;-71
2022/04/24 11:03:15;;;;;;;3.92;2.10;;;20.50;39.70;19.50;100087.00;;;;5037296;28;20052;-72
2022/04/24 11:06:01;;;;;;;9.50;2.13;;;20.50;39.70;19.50;100097.00;;;;5011581;28;20078;-72
2022/04/24 11:08:48;;;;;;;4.30;2.45;;;20.50;39.70;19.50;100090.00;;;;5036352;28;20048;-71
2022/04/24 11:11:34;;;;;;;3.28;2.10;;;20.50;39.70;19.50;100088.00;;;;5034922;28;20139;-71
2022/04/24 11:14:22;;;;;;;4.75;2.10;;;20.50;39.70;19.50;100088.00;;;;5031604;28;20039;-71
2022/04/24 11:17:08;;;;;;;3.65;2.20;;;20.50;39.60;19.50;100093.00;;;;5025273;28;20116;-71
2022/04/24 11:20:09;;;;;;;4.65;2.50;;;20.60;39.70;19.50;100092.00;;;;5030944;28;20037;-77
2022/04/24 11:22:55;;;;;;;2.83;1.90;;;20.60;39.70;19.60;100089.00;;;;5027542;28;20037;-73
2022/04/24 11:25:42;;;;;;;2.40;2.13;;;20.60;39.60;19.60;100083.00;;;;5027626;28;20049;-71
2022/04/24 11:28:39;;;;;;;2.50;1.83;;;20.60;39.70;19.60;100085.00;;;;5039558;28;20040;-71
2022/04/24 11:31:25;;;;;;;2.83;1.60;;;20.60;39.70;19.60;100087.00;;;;5029583;28;20118;-71
2022/04/24 11:34:12;;;;;;;7.00;2.33;;;20.60;39.60;19.60;100093.00;;;;5039358;28;20033;-71
2022/04/24 11:36:59;;;;;;;3.05;1.65;;;20.60;39.60;19.60;100084.00;;;;5022366;28;20136;-71
2022/04/24 11:39:45;;;;;;;3.10;2.00;;;20.60;39.60;19.60;100086.00;;;;5010941;28;20041;-71
2022/04/24 11:42:31;;;;;;;5.10;1.75;;;20.60;39.60;19.60;100087.00;;;;5047653;28;20052;-71
2022/04/24 11:51:34;;;;;;;2.78;1.83;;;20.70;39.50;19.60;100095.00;;;;5014961;28;20125;-71
2022/04/24 11:54:21;;;;;;;2.20;2.00;;;20.70;39.50;19.60;100087.00;;;;5029659;28;20045;-71
2022/04/24 11:57:09;;;;;;;3.67;2.08;;;20.70;39.40;19.60;100096.00;;;;5008193;28;20044;-70
2022/04/24 11:59:55;;;;;;;2.67;1.98;;;20.70;39.20;19.60;100091.00;;;;5025234;28;20467;-71
2022/04/24 12:02:43;;;;;;;6.50;2.65;;;20.70;39.30;19.60;100089.00;;;;5038907;28;20068;-71
2022/04/24 12:05:29;;;;;;;6.03;2.72;;;20.70;39.60;19.60;100078.00;;;;5035529;28;20052;-70
2022/04/24 12:08:15;;;;;;;2.97;2.55;;;20.70;39.50;19.60;100087.00;;;;5029554;28;20044;-71
2022/04/24 12:11:01;;;;;;;2.45;2.05;;;20.70;39.30;19.60;100094.00;;;;5039298;28;20041;-71
2022/04/24 12:14:07;;;;;;;2.83;2.15;;;20.70;39.40;19.60;100091.00;;;;5047411;28;20106;-71
2022/04/24 12:16:56;;;;;;;2.15;1.70;;;20.70;39.40;19.60;100083.00;;;;5038910;28;20626;-70
2022/04/24 12:19:49;;;;;;;2.85;1.48;;;20.70;39.30;19.60;100084.00;;;;5037390;28;20196;-71